Time;durP1;ratioP1;P1;durP2;ratioP2;P2;SDS_P1;SDS_P2;PMS_P1;PMS_P2;Temp;Humidity;BMP_temperature;BMP_pressure;BME280_temperature;BME280_humidity;BME280_pressure;Samples;Min_cycle;Max_cycle;Signal;HPM_P1;HPM_P2
2021/09/18 00:00:53;;;;;;;1.43;1.33;;;14.30;99.90;;;;;;5103984;28;20922;-85
2021/09/18 00:03:19;;;;;;;1.80;1.70;;;14.40;99.90;;;;;;5104745;28;20483;-84
2021/09/18 00:05:46;;;;;;;1.60;1.50;;;14.40;99.90;;;;;;5109986;28;20470;-84
2021/09/18 00:08:13;;;;;;;2.50;1.40;;;14.20;99.90;;;;;;5112814;28;20428;-83
2021/09/18 00:10:39;;;;;;;1.47;1.37;;;14.30;99.90;;;;;;5112292;28;20444;-84
2021/09/18 00:13:06;;;;;;;1.63;1.50;;;14.20;99.90;;;;;;5110417;28;20492;-84
2021/09/18 00:15:33;;;;;;;1.97;1.77;;;14.20;99.90;;;;;;5103926;28;20444;-83
2021/09/18 00:18:01;;;;;;;1.57;1.40;;;14.20;99.90;;;;;;5103805;28;20426;-83
2021/09/18 00:20:28;;;;;;;1.60;1.50;;;14.10;99.90;;;;;;5101356;28;20449;-84
2021/09/18 00:22:54;;;;;;;2.23;1.87;;;14.10;99.90;;;;;;5099924;28;20475;-84
2021/09/18 00:25:21;;;;;;;2.53;1.70;;;14.10;99.90;;;;;;5100458;28;20897;-84
2021/09/18 00:27:49;;;;;;;1.50;1.40;;;14.10;99.90;;;;;;5099661;28;20448;-84
2021/09/18 00:30:15;;;;;;;2.23;2.03;;;14.00;99.90;;;;;;5099898;28;20541;-84
2021/09/18 00:32:42;;;;;;;1.53;1.43;;;14.00;99.90;;;;;;5106032;28;20484;-82
2021/09/18 00:35:11;;;;;;;1.73;1.50;;;14.10;99.90;;;;;;5111400;28;20440;-84
2021/09/18 00:37:38;;;;;;;4.03;1.60;;;14.10;99.90;;;;;;5111416;28;20448;-83
2021/09/18 00:40:06;;;;;;;2.07;1.87;;;14.40;99.90;;;;;;5115930;28;20447;-84
2021/09/18 00:42:33;;;;;;;1.90;1.80;;;14.10;99.90;;;;;;5107905;28;20476;-83
2021/09/18 00:45:00;;;;;;;2.13;1.70;;;14.10;99.90;;;;;;5099599;28;20962;-83
2021/09/18 00:47:27;;;;;;;2.13;1.60;;;14.10;99.90;;;;;;5098687;28;20872;-83
2021/09/18 00:49:53;;;;;;;2.20;2.00;;;14.10;99.90;;;;;;5099271;28;20474;-84
2021/09/18 00:52:22;;;;;;;2.20;2.10;;;14.10;99.90;;;;;;5097980;28;21029;-83
2021/09/18 00:54:49;;;;;;;1.60;1.50;;;14.10;99.90;;;;;;5098130;28;20480;-84
2021/09/18 00:57:17;;;;;;;1.40;1.30;;;14.10;99.90;;;;;;5098147;28;20795;-83
2021/09/18 00:59:44;;;;;;;1.77;1.50;;;14.10;99.90;;;;;;5098068;28;20472;-84
2021/09/18 01:02:11;;;;;;;2.93;1.40;;;14.10;99.90;;;;;;5098939;28;20522;-84
2021/09/18 01:04:39;;;;;;;1.47;1.37;;;14.10;99.90;;;;;;5107820;28;20470;-83
2021/09/18 01:07:06;;;;;;;2.27;1.83;;;14.10;99.90;;;;;;5111994;28;20448;-83
2021/09/18 01:09:34;;;;;;;2.80;1.57;;;14.10;99.90;;;;;;5104078;28;20419;-85
2021/09/18 01:12:05;;;;;;;1.80;1.70;;;14.00;99.90;;;;;;5099300;28;20515;-85
2021/09/18 01:14:31;;;;;;;1.50;1.40;;;13.90;99.90;;;;;;5098746;28;20460;-85
2021/09/18 01:16:58;;;;;;;2.00;1.63;;;14.10;99.90;;;;;;5099223;28;20450;-84
2021/09/18 01:19:25;;;;;;;2.20;2.00;;;14.00;99.90;;;;;;5098718;28;20415;-84
2021/09/18 01:21:51;;;;;;;2.30;2.20;;;14.10;99.90;;;;;;5098441;28;20458;-85
2021/09/18 01:24:19;;;;;;;2.13;2.00;;;14.00;99.90;;;;;;5099797;28;20480;-83
2021/09/18 01:26:47;;;;;;;2.10;1.90;;;14.00;99.90;;;;;;5110098;28;20447;-83
2021/09/18 01:29:14;;;;;;;2.80;1.87;;;14.00;99.90;;;;;;5111149;28;20440;-82
2021/09/18 01:31:42;;;;;;;2.60;2.17;;;14.00;99.90;;;;;;5101777;28;20553;-84
2021/09/18 01:34:08;;;;;;;2.20;2.00;;;14.00;99.90;;;;;;5098838;28;20906;-84
2021/09/18 01:36:35;;;;;;;3.87;1.83;;;14.00;99.90;;;;;;5098320;28;20415;-84
2021/09/18 01:39:02;;;;;;;2.10;2.00;;;14.10;99.90;;;;;;5100281;28;20451;-83
2021/09/18 01:41:31;;;;;;;2.23;2.13;;;13.90;99.90;;;;;;5097791;28;20917;-83
2021/09/18 01:48:07;;;;;;;2.50;2.30;;;14.00;99.90;;;;;;4988674;28;20404;-85
2021/09/18 01:51:12;;;;;;;1.80;1.37;;;13.90;99.90;;;;;;5010396;28;20917;-86
2021/09/18 01:53:42;;;;;;;1.50;1.40;;;13.90;99.90;;;;;;5090302;28;20478;-85
2021/09/18 02:00:47;;;;;;;2.17;2.07;;;14.30;99.90;;;;;;5095084;28;20569;-87
2021/09/18 02:03:50;;;;;;;2.83;2.10;;;14.00;99.90;;;;;;5008791;28;20747;-87
2021/09/18 02:07:02;;;;;;;1.60;1.50;;;13.90;99.90;;;;;;5094532;28;20904;-87
2021/09/18 02:12:49;;;;;;;2.23;1.70;;;13.90;99.90;;;;;;5094262;28;20478;-87
2021/09/18 02:15:35;;;;;;;2.20;1.50;;;13.90;99.90;;;;;;5094340;28;20442;-87
2021/09/18 02:18:31;;;;;;;2.20;2.00;;;15.30;99.90;;;;;;5095850;28;20443;-87
2021/09/18 02:24:15;;;;;;;1.93;1.63;;;16.90;99.90;;;;;;5079649;28;20543;-87
2021/09/18 02:29:52;;;;;;;1.73;1.63;;;13.90;99.90;;;;;;5091833;28;20457;-87
2021/09/18 02:36:08;;;;;;;2.87;2.43;;;14.00;99.90;;;;;;5074940;28;20484;-87
2021/09/18 02:38:44;;;;;;;3.77;1.70;;;13.90;99.90;;;;;;5076844;28;20512;-87
2021/09/18 02:47:07;;;;;;;1.37;1.27;;;13.80;99.90;;;;;;5087982;22;20493;-88
2021/09/18 02:49:34;;;;;;;3.67;1.67;;;13.70;99.90;;;;;;5083929;28;20499;-88
2021/09/18 02:52:01;;;;;;;2.00;1.50;;;13.70;99.90;;;;;;5087681;28;20463;-87
2021/09/18 02:54:28;;;;;;;1.53;1.43;;;13.70;99.90;;;;;;5100097;28;20438;-87
2021/09/18 02:56:55;;;;;;;3.77;1.70;;;13.70;99.90;;;;;;5118753;27;20468;-87
2021/09/18 02:59:22;;;;;;;1.97;1.80;;;13.70;99.90;;;;;;5121050;27;20428;-88
2021/09/18 03:01:48;;;;;;;2.30;1.70;;;13.70;99.90;;;;;;5121688;27;20403;-88
2021/09/18 03:04:15;;;;;;;1.63;1.53;;;13.80;99.90;;;;;;5121865;27;20424;-88
2021/09/18 03:06:41;;;;;;;1.40;1.30;;;13.70;99.90;;;;;;5119848;27;20474;-87
2021/09/18 03:09:08;;;;;;;1.73;1.63;;;13.70;99.90;;;;;;5120694;27;20428;-87
2021/09/18 03:11:36;;;;;;;4.73;1.60;;;13.70;99.90;;;;;;5120728;27;20437;-87
2021/09/18 03:14:02;;;;;;;2.33;2.00;;;13.80;99.90;;;;;;5121186;27;20488;-89
2021/09/18 03:16:29;;;;;;;3.03;1.80;;;13.80;99.90;;;;;;5120519;27;20438;-88
2021/09/18 03:18:55;;;;;;;2.30;2.10;;;13.70;99.90;;;;;;5118323;28;20440;-88
2021/09/18 03:21:22;;;;;;;2.57;2.37;;;13.80;99.90;;;;;;5099094;28;20474;-87
2021/09/18 03:23:49;;;;;;;4.57;2.17;;;13.80;99.90;;;;;;5099868;28;20860;-87
2021/09/18 03:26:15;;;;;;;3.80;1.63;;;13.90;99.90;;;;;;5099833;28;20471;-88
2021/09/18 03:28:43;;;;;;;2.37;2.13;;;13.80;99.90;;;;;;5098519;28;20445;-88
2021/09/18 03:31:10;;;;;;;1.90;1.80;;;13.80;99.90;;;;;;5104225;28;20457;-87
2021/09/18 03:33:36;;;;;;;3.50;3.20;;;13.80;99.90;;;;;;5100407;28;20515;-87
2021/09/18 03:36:04;;;;;;;2.67;2.47;;;13.90;99.90;;;;;;5101848;28;20465;-87
2021/09/18 03:38:31;;;;;;;2.90;2.70;;;13.80;99.90;;;;;;5101989;28;20529;-87
2021/09/18 03:40:58;;;;;;;3.00;2.60;;;13.70;99.90;;;;;;5101555;28;20444;-86
2021/09/18 03:43:24;;;;;;;5.07;2.13;;;13.90;99.90;;;;;;5103486;28;20423;-86
2021/09/18 03:45:52;;;;;;;2.40;1.97;;;13.90;99.90;;;;;;5107255;28;20446;-86
2021/09/18 03:48:19;;;;;;;3.73;2.10;;;13.80;99.90;;;;;;5107123;28;20448;-86
2021/09/18 03:50:46;;;;;;;3.57;3.27;;;13.80;99.90;;;;;;5102852;28;20453;-87
2021/09/18 03:53:13;;;;;;;3.17;2.87;;;13.80;99.90;;;;;;5102803;28;20487;-87
2021/09/18 03:55:39;;;;;;;2.30;2.17;;;13.80;99.90;;;;;;5103929;28;20617;-87
2021/09/18 03:58:06;;;;;;;3.20;2.70;;;13.80;99.90;;;;;;5103436;28;20445;-87
2021/09/18 04:00:33;;;;;;;2.10;2.00;;;13.70;99.90;;;;;;5100430;28;20462;-87
2021/09/18 04:03:01;;;;;;;3.13;1.67;;;13.70;99.90;;;;;;5101660;28;20449;-87
2021/09/18 04:05:27;;;;;;;2.40;2.20;;;13.70;99.90;;;;;;5105629;28;20468;-87
2021/09/18 04:07:54;;;;;;;2.60;2.10;;;13.90;99.90;;;;;;5118496;27;20464;-89
2021/09/18 04:10:21;;;;;;;2.88;2.30;;;13.00;99.90;;;;;;5119620;27;20427;-88
2021/09/18 04:12:47;;;;;;;2.60;2.40;;;13.80;99.90;;;;;;5120365;27;20206;-89
2021/09/18 04:15:14;;;;;;;2.67;2.47;;;13.70;99.90;;;;;;5110687;27;20441;-87
2021/09/18 04:17:40;;;;;;;5.23;3.30;;;13.80;99.90;;;;;;5101368;28;20456;-87
2021/09/18 04:20:10;;;;;;;3.33;2.57;;;13.80;99.90;;;;;;5099976;28;20451;-87
2021/09/18 04:22:36;;;;;;;3.17;2.07;;;13.80;99.90;;;;;;5099443;28;20427;-87
2021/09/18 04:25:04;;;;;;;2.80;2.60;;;13.80;99.90;;;;;;5112196;28;20456;-87
2021/09/18 04:27:30;;;;;;;4.27;2.60;;;13.70;99.90;;;;;;5118969;27;20467;-87
2021/09/18 04:29:57;;;;;;;4.07;2.40;;;13.90;99.90;;;;;;5108397;28;20445;-87
2021/09/18 04:32:24;;;;;;;5.30;2.70;;;13.70;99.90;;;;;;5098169;28;20422;-87
2021/09/18 04:34:50;;;;;;;2.60;2.40;;;13.70;99.90;;;;;;5099122;28;20480;-87
2021/09/18 04:37:18;;;;;;;2.23;2.10;;;13.70;99.90;;;;;;5099251;28;20774;-87
2021/09/18 04:39:45;;;;;;;3.80;2.70;;;13.70;99.90;;;;;;5099165;28;20479;-87
2021/09/18 04:42:11;;;;;;;5.13;2.70;;;13.70;99.90;;;;;;5111818;28;20440;-86
2021/09/18 04:44:38;;;;;;;3.10;2.90;;;13.80;99.90;;;;;;5118226;28;20448;-87
2021/09/18 04:47:05;;;;;;;4.93;4.53;;;13.70;99.90;;;;;;5119509;27;20439;-89
2021/09/18 04:49:31;;;;;;;6.50;3.92;;;13.90;99.90;;;;;;5119309;27;20412;-90
2021/09/18 04:51:58;;;;;;;4.50;3.17;;;;;;;;;;5119546;27;20186;-90
2021/09/18 04:54:26;;;;;;;6.03;3.83;;;13.70;99.90;;;;;;5117333;28;20449;-88
2021/09/18 04:56:53;;;;;;;4.07;3.67;;;13.70;99.90;;;;;;5118154;28;20206;-89
2021/09/18 04:59:19;;;;;;;4.20;3.83;;;13.70;99.90;;;;;;5118865;27;20445;-88
2021/09/18 05:01:46;;;;;;;5.10;4.63;;;13.70;99.90;;;;;;5117049;28;20477;-88
2021/09/18 05:04:13;;;;;;;5.27;4.63;;;13.50;99.90;;;;;;5117038;28;20394;-88
2021/09/18 05:06:39;;;;;;;5.10;4.63;;;13.60;99.90;;;;;;5117265;27;20495;-87
2021/09/18 05:09:06;;;;;;;5.80;5.20;;;13.70;99.90;;;;;;5114919;28;20452;-88
2021/09/18 05:11:34;;;;;;;10.03;7.47;;;13.60;99.90;;;;;;5115673;28;20441;-88
2021/09/18 05:14:00;;;;;;;6.70;4.57;;;13.70;99.90;;;;;;5114038;28;20450;-88
2021/09/18 05:16:27;;;;;;;5.60;5.10;;;13.70;99.90;;;;;;5110680;28;20456;-88
2021/09/18 05:18:53;;;;;;;6.73;5.50;;;13.60;99.90;;;;;;5107476;28;20470;-88
2021/09/18 05:21:20;;;;;;;6.33;5.00;;;13.70;99.90;;;;;;5106194;28;20451;-88
2021/09/18 05:23:46;;;;;;;5.87;5.03;;;13.70;99.90;;;;;;5101128;28;20950;-87
2021/09/18 05:26:13;;;;;;;6.30;4.67;;;13.60;99.90;;;;;;5101236;28;20468;-87
2021/09/18 05:28:41;;;;;;;6.30;5.53;;;13.50;99.90;;;;;;5099396;28;20942;-88
2021/09/18 05:31:08;;;;;;;7.50;5.20;;;13.60;99.90;;;;;;5101499;28;20480;-88
2021/09/18 05:33:34;;;;;;;6.03;5.43;;;13.60;99.90;;;;;;5109259;28;20492;-88
2021/09/18 05:36:01;;;;;;;7.20;5.80;;;13.50;99.90;;;;;;5115869;27;20471;-91
2021/09/18 05:38:27;;;;;;;8.37;6.00;;;13.60;99.90;;;;;;5118942;27;20436;-89
2021/09/18 05:40:54;;;;;;;7.37;6.33;;;13.60;99.90;;;;;;5118907;27;20433;-90
2021/09/18 05:43:20;;;;;;;8.03;6.00;;;13.90;99.90;;;;;;5119023;27;20407;-89
2021/09/18 05:45:48;;;;;;;7.47;5.03;;;13.50;99.90;;;;;;5118536;27;20452;-88
2021/09/18 05:48:16;;;;;;;6.30;5.50;;;13.60;99.90;;;;;;5116668;27;20427;-87
2021/09/18 05:50:43;;;;;;;7.93;5.80;;;13.50;99.90;;;;;;5112817;28;20448;-87
2021/09/18 05:53:10;;;;;;;8.57;7.50;;;13.50;99.90;;;;;;5107496;28;20466;-87
2021/09/18 05:55:36;;;;;;;5.63;4.60;;;13.50;99.90;;;;;;5105930;28;20472;-87
2021/09/18 05:58:03;;;;;;;5.97;5.37;;;13.50;99.90;;;;;;5105410;28;20419;-87
2021/09/18 06:00:30;;;;;;;6.70;5.40;;;13.50;99.90;;;;;;5100835;28;21000;-87
2021/09/18 06:02:58;;;;;;;6.10;5.50;;;13.50;99.90;;;;;;5102614;28;20833;-87
2021/09/18 06:05:24;;;;;;;6.87;6.17;;;13.40;99.90;;;;;;5101198;28;20467;-88
2021/09/18 06:07:51;;;;;;;6.63;6.03;;;13.40;99.90;;;;;;5098123;28;20463;-87
2021/09/18 06:10:18;;;;;;;7.60;5.97;;;13.40;99.90;;;;;;5098077;28;20890;-87
2021/09/18 06:12:44;;;;;;;6.10;5.53;;;13.40;99.90;;;;;;5100942;28;20415;-87
2021/09/18 06:15:12;;;;;;;6.60;5.10;;;13.30;99.90;;;;;;5102179;28;20489;-87
2021/09/18 06:17:38;;;;;;;5.87;5.10;;;13.30;99.90;;;;;;5102151;28;20448;-87
2021/09/18 06:20:08;;;;;;;7.43;5.90;;;13.30;99.90;;;;;;5101740;28;20501;-87
2021/09/18 06:22:34;;;;;;;6.27;5.67;;;13.10;99.90;;;;;;5100149;28;20419;-87
2021/09/18 06:25:01;;;;;;;9.43;5.67;;;13.30;99.90;;;;;;5100702;28;20501;-87
2021/09/18 06:27:28;;;;;;;7.23;5.00;;;12.90;99.90;;;;;;5101403;28;20448;-87
2021/09/18 06:29:55;;;;;;;7.00;6.40;;;13.40;99.90;;;;;;5101442;28;20448;-87
2021/09/18 06:32:21;;;;;;;7.17;5.60;;;13.40;99.90;;;;;;5101452;28;20448;-87
2021/09/18 06:34:48;;;;;;;7.63;5.50;;;13.30;99.90;;;;;;5100482;28;20479;-87
2021/09/18 06:37:16;;;;;;;8.53;6.10;;;13.40;99.90;;;;;;5102438;28;20448;-88
2021/09/18 06:39:43;;;;;;;6.33;5.73;;;13.20;99.90;;;;;;5101012;28;20449;-87
2021/09/18 06:42:09;;;;;;;6.03;5.30;;;13.40;99.90;;;;;;5100563;28;20415;-86
2021/09/18 06:44:38;;;;;;;5.93;5.40;;;13.40;99.90;;;;;;5099860;28;20432;-87
2021/09/18 06:47:05;;;;;;;5.67;5.17;;;13.50;99.90;;;;;;5100437;28;20509;-87
2021/09/18 06:49:31;;;;;;;10.63;5.47;;;13.30;99.90;;;;;;5098999;28;20480;-87
2021/09/18 06:51:58;;;;;;;8.97;5.90;;;13.40;99.90;;;;;;5099610;28;20483;-87
2021/09/18 06:54:26;;;;;;;6.27;5.77;;;13.40;99.90;;;;;;5101066;28;20921;-87
2021/09/18 06:56:52;;;;;;;6.97;6.27;;;13.50;99.90;;;;;;5101192;28;20464;-88
2021/09/18 06:59:22;;;;;;;4.57;4.17;;;13.40;99.90;;;;;;5100560;28;20453;-88
2021/09/18 07:01:48;;;;;;;7.33;4.90;;;13.50;99.90;;;;;;5100155;28;20783;-88
2021/09/18 07:04:15;;;;;;;6.60;6.00;;;13.60;99.90;;;;;;5099239;28;20440;-88
2021/09/18 07:06:42;;;;;;;5.20;4.70;;;13.50;99.90;;;;;;5100156;28;20443;-88
2021/09/18 07:09:08;;;;;;;5.93;5.13;;;13.50;99.90;;;;;;5101949;28;20455;-88
2021/09/18 07:11:36;;;;;;;5.57;4.67;;;13.60;99.90;;;;;;5106685;28;20452;-88
2021/09/18 07:14:03;;;;;;;6.37;4.60;;;13.60;99.90;;;;;;5099782;28;20529;-87
2021/09/18 07:16:30;;;;;;;6.07;5.47;;;13.70;99.90;;;;;;5111002;28;20528;-87
2021/09/18 07:18:56;;;;;;;6.73;5.03;;;13.80;99.90;;;;;;5101703;28;20444;-87
2021/09/18 07:21:23;;;;;;;6.03;4.93;;;13.80;99.90;;;;;;5100101;28;20487;-87
2021/09/18 07:23:50;;;;;;;5.53;5.03;;;13.70;99.90;;;;;;5101683;28;20423;-86
2021/09/18 07:26:16;;;;;;;7.13;6.33;;;13.80;99.90;;;;;;5102572;28;20439;-87
2021/09/18 07:28:44;;;;;;;6.50;5.50;;;13.70;99.90;;;;;;5098946;28;20455;-86
2021/09/18 07:31:11;;;;;;;7.07;6.33;;;13.80;99.90;;;;;;5098661;28;20947;-86
2021/09/18 07:33:37;;;;;;;8.33;6.97;;;13.80;99.90;;;;;;5107064;28;20994;-88
2021/09/18 07:36:04;;;;;;;7.70;6.27;;;13.80;99.90;;;;;;5099978;28;20468;-87
2021/09/18 07:38:31;;;;;;;6.70;6.00;;;;;;;;;;5099088;28;20448;-87
2021/09/18 07:40:57;;;;;;;11.97;8.07;;;13.90;99.90;;;;;;5101000;28;20460;-88
2021/09/18 07:43:24;;;;;;;8.40;7.00;;;13.90;99.90;;;;;;5099474;28;20449;-87
2021/09/18 07:45:53;;;;;;;8.80;7.30;;;13.90;99.90;;;;;;5098428;28;20473;-87
2021/09/18 07:48:19;;;;;;;8.37;6.90;;;13.20;99.90;;;;;;5099053;28;20415;-87
2021/09/18 07:50:46;;;;;;;9.67;7.17;;;14.00;99.90;;;;;;5098921;28;20506;-88
2021/09/18 07:53:12;;;;;;;9.50;7.17;;;14.10;99.90;;;;;;5100149;28;20577;-87
2021/09/18 07:55:39;;;;;;;7.50;6.43;;;14.10;99.90;;;;;;5099758;28;20908;-86
2021/09/18 07:58:05;;;;;;;9.00;6.90;;;14.20;99.90;;;;;;5102890;28;20423;-86
2021/09/18 08:00:32;;;;;;;7.90;6.57;;;14.20;99.90;;;;;;5115394;28;20432;-89
2021/09/18 08:03:00;;;;;;;9.03;7.33;;;14.20;99.90;;;;;;5109272;28;20448;-86
2021/09/18 08:05:27;;;;;;;9.90;7.23;;;14.30;99.90;;;;;;5118991;27;20475;-87
2021/09/18 08:07:53;;;;;;;8.30;7.47;;;14.30;99.90;;;;;;5119533;27;20440;-86
2021/09/18 08:10:20;;;;;;;8.33;7.40;;;14.50;99.90;;;;;;5113486;28;20498;-86
2021/09/18 08:12:48;;;;;;;11.90;7.33;;;14.50;99.90;;;;;;5100004;28;20905;-87
2021/09/18 08:15:15;;;;;;;6.50;5.90;;;14.60;99.90;;;;;;5099356;28;20490;-86
2021/09/18 08:17:42;;;;;;;6.17;5.53;;;14.30;99.90;;;;;;5100181;28;20456;-87
2021/09/18 08:20:12;;;;;;;6.67;5.83;;;15.20;99.90;;;;;;5101008;28;20497;-88
2021/09/18 08:22:39;;;;;;;6.30;5.70;;;14.90;99.90;;;;;;5102232;28;20448;-87
2021/09/18 08:25:06;;;;;;;6.10;5.50;;;15.00;99.90;;;;;;5099276;28;20494;-87
2021/09/18 08:27:33;;;;;;;5.20;4.70;;;15.10;99.90;;;;;;5108416;28;20448;-87
2021/09/18 08:30:00;;;;;;;5.30;4.70;;;14.70;99.90;;;;;;5108919;28;20425;-87
2021/09/18 08:32:26;;;;;;;4.53;3.70;;;15.60;99.90;;;;;;5110749;28;20415;-87
2021/09/18 08:34:54;;;;;;;3.90;3.60;;;15.80;99.90;;;;;;5109238;28;20499;-88
2021/09/18 08:37:22;;;;;;;4.23;3.83;;;15.60;99.90;;;;;;5112109;28;20452;-88
2021/09/18 08:39:49;;;;;;;4.63;4.13;;;15.70;99.90;;;;;;5111267;28;20478;-87
2021/09/18 08:42:16;;;;;;;2.60;2.47;;;15.60;99.90;;;;;;5110841;28;20415;-87
2021/09/18 08:44:42;;;;;;;4.60;3.10;;;15.20;99.90;;;;;;5108746;28;20440;-87
2021/09/18 08:47:12;;;;;;;4.73;2.60;;;15.50;99.90;;;;;;5113635;28;20432;-88
2021/09/18 08:49:39;;;;;;;2.27;2.07;;;15.80;99.90;;;;;;5110348;28;20490;-86
2021/09/18 08:52:06;;;;;;;2.33;2.00;;;15.90;99.90;;;;;;5110726;28;20542;-87
2021/09/18 08:54:38;;;;;;;3.63;3.27;;;15.80;99.90;;;;;;5111409;28;20480;-88
2021/09/18 08:57:04;;;;;;;3.87;2.10;;;15.60;99.90;;;;;;5112264;28;20483;-88
2021/09/18 08:59:31;;;;;;;1.90;1.60;;;16.10;99.90;;;;;;5114740;28;20441;-87
2021/09/18 09:02:12;;;;;;;1.70;1.60;;;16.20;99.90;;;;;;5115307;28;20484;-87
2021/09/18 09:04:39;;;;;;;3.50;1.57;;;16.30;99.90;;;;;;5116404;28;20450;-87
2021/09/18 09:07:08;;;;;;;2.20;1.17;;;16.40;99.90;;;;;;5116188;27;20457;-88
2021/09/18 09:09:57;;;;;;;1.97;1.37;;;16.50;99.90;;;;;;5117016;28;20424;-87
2021/09/18 09:12:28;;;;;;;3.40;1.37;;;16.10;99.90;;;;;;5115562;28;20458;-86
2021/09/18 09:14:55;;;;;;;2.50;1.30;;;16.70;99.90;;;;;;5116268;27;20484;-88
2021/09/18 09:17:28;;;;;;;1.50;1.17;;;16.70;99.90;;;;;;5117719;27;20437;-87
2021/09/18 09:19:54;;;;;;;1.97;1.23;;;16.00;99.90;;;;;;5117876;27;20454;-87
2021/09/18 09:22:45;;;;;;;1.50;1.37;;;16.80;99.90;;;;;;5116788;28;20440;-87
2021/09/18 09:25:34;;;;;;;1.37;1.27;;;16.90;99.90;;;;;;5116528;28;20440;-87
2021/09/18 09:28:28;;;;;;;3.80;1.30;;;16.80;99.90;;;;;;5117577;27;20436;-87
2021/09/18 09:31:00;;;;;;;1.17;1.07;;;16.90;99.90;;;;;;5116985;28;20440;-87
2021/09/18 09:33:27;;;;;;;2.20;1.20;;;17.00;99.90;;;;;;5116173;28;20509;-86
2021/09/18 09:35:54;;;;;;;6.00;1.40;;;16.90;99.90;;;;;;5114760;27;20475;-86
2021/09/18 09:38:21;;;;;;;2.30;1.23;;;16.80;99.90;;;;;;5117533;28;20407;-87
2021/09/18 09:40:49;;;;;;;1.37;1.10;;;16.80;99.90;;;;;;5117097;28;20462;-87
2021/09/18 09:43:17;;;;;;;3.30;1.20;;;16.70;99.90;;;;;;5116119;28;20419;-86
2021/09/18 09:45:46;;;;;;;1.87;1.47;;;16.60;99.90;;;;;;5118621;27;20463;-87
2021/09/18 09:48:17;;;;;;;2.03;1.30;;;16.50;99.90;;;;;;5121120;28;20443;-89
2021/09/18 09:50:45;;;;;;;1.53;0.90;;;16.40;99.90;;;;;;5112096;28;20471;-87
2021/09/18 09:53:25;;;;;;;2.40;1.00;;;16.50;99.90;;;;;;5106285;28;20821;-87
2021/09/18 09:55:52;;;;;;;8.73;5.50;;;16.30;99.90;;;;;;5101759;28;20522;-87
2021/09/18 09:58:19;;;;;;;1.40;1.30;;;16.30;99.90;;;;;;5110656;28;20444;-87
2021/09/18 10:00:51;;;;;;;1.47;1.20;;;16.10;99.90;;;;;;5121304;28;20437;-86
2021/09/18 10:03:21;;;;;;;1.50;1.40;;;16.00;99.90;;;;;;5119934;28;20500;-87
2021/09/18 10:05:49;;;;;;;1.80;1.70;;;15.90;99.90;;;;;;5118512;28;20464;-87
2021/09/18 10:08:22;;;;;;;4.10;3.70;;;15.80;99.90;;;;;;5118116;28;20413;-87
2021/09/18 10:10:50;;;;;;;8.17;6.90;;;15.80;99.90;;;;;;5104325;28;20425;-86
2021/09/18 10:13:18;;;;;;;5.10;2.80;;;15.80;99.90;;;;;;5105511;28;20470;-87
2021/09/18 10:15:46;;;;;;;3.83;1.70;;;15.80;99.90;;;;;;5103751;28;20494;-87
2021/09/18 10:18:15;;;;;;;1.70;1.40;;;15.80;99.90;;;;;;5107234;28;20448;-87
2021/09/18 10:23:27;;;;;;;1.70;1.57;;;16.00;99.90;;;;;;5122735;27;20392;-89
2021/09/18 10:25:55;;;;;;;1.13;1.03;;;16.10;99.90;;;;;;5122500;27;20440;-91
2021/09/18 10:28:24;;;;;;;1.30;0.93;;;16.20;99.90;;;;;;5122510;27;20425;-87
2021/09/18 10:30:53;;;;;;;1.20;1.03;;;16.20;99.90;;;;;;5122030;27;20433;-89
2021/09/18 10:33:39;;;;;;;1.53;0.70;;;16.30;99.90;;;;;;5122022;27;20424;-87
2021/09/18 10:36:09;;;;;;;0.90;0.80;;;16.30;99.90;;;;;;5119989;27;20492;-87
2021/09/18 10:38:37;;;;;;;1.30;0.90;;;16.50;99.90;;;;;;5109678;28;20794;-87
2021/09/18 10:41:07;;;;;;;0.80;0.80;;;16.70;99.90;;;;;;5105536;28;20493;-87
2021/09/18 10:43:36;;;;;;;1.73;0.90;;;17.00;99.90;;;;;;5103435;28;20472;-87
2021/09/18 10:46:07;;;;;;;1.00;0.80;;;17.10;99.90;;;;;;5103164;28;20488;-87
2021/09/18 10:48:37;;;;;;;1.77;1.23;;;17.10;99.90;;;;;;5101820;28;20420;-87
2021/09/18 10:51:04;;;;;;;1.47;1.37;;;17.10;99.90;;;;;;5104176;28;20437;-87
2021/09/18 10:53:51;;;;;;;1.30;1.20;;;17.10;99.90;;;;;;5106852;28;20447;-87
2021/09/18 10:56:18;;;;;;;1.40;1.20;;;17.10;99.90;;;;;;5116236;28;20495;-87
2021/09/18 10:59:06;;;;;;;1.00;0.90;;;17.10;99.90;;;;;;5117169;28;20448;-86
2021/09/18 11:01:34;;;;;;;1.60;0.90;;;17.20;99.90;;;;;;5118075;28;20450;-87
2021/09/18 11:04:01;;;;;;;1.80;1.20;;;17.20;99.90;;;;;;5106985;28;20445;-87
2021/09/18 11:06:39;;;;;;;2.67;2.43;;;17.30;99.90;;;;;;5102079;28;20468;-88
2021/09/18 11:09:06;;;;;;;0.97;0.87;;;17.40;99.90;;;;;;5100539;28;20481;-87
2021/09/18 11:11:34;;;;;;;0.90;0.60;;;17.40;99.90;;;;;;5100367;28;20448;-87
2021/09/18 11:14:01;;;;;;;2.33;1.00;;;17.50;99.90;;;;;;5103054;28;20539;-87
2021/09/18 11:16:32;;;;;;;3.13;0.90;;;17.30;99.90;;;;;;5112470;28;20484;-86
2021/09/18 11:19:04;;;;;;;1.53;1.10;;;17.20;99.90;;;;;;5107509;28;20478;-87
2021/09/18 11:21:35;;;;;;;1.90;1.20;;;17.20;99.90;;;;;;5101471;28;20457;-87
2021/09/18 11:24:04;;;;;;;2.60;1.20;;;17.10;99.90;;;;;;5107650;28;20471;-86
2021/09/18 11:26:35;;;;;;;1.40;1.30;;;16.70;99.90;;;;;;5108488;28;20497;-87
2021/09/18 11:29:20;;;;;;;1.43;1.23;;;16.20;99.90;;;;;;5107704;28;20424;-88
2021/09/18 11:31:56;;;;;;;1.50;1.37;;;15.80;99.90;;;;;;5117865;28;20413;-87
2021/09/18 11:34:25;;;;;;;1.83;1.70;;;15.90;99.90;;;;;;5119218;28;20420;-88
2021/09/18 11:36:54;;;;;;;2.70;1.90;;;15.40;99.90;;;;;;5117219;27;20982;-86
2021/09/18 11:39:38;;;;;;;2.07;1.80;;;15.50;99.90;;;;;;5117623;27;20421;-87
2021/09/18 11:42:23;;;;;;;2.23;1.50;;;15.50;99.90;;;;;;5119217;27;20424;-87
2021/09/18 11:44:52;;;;;;;1.63;1.53;;;15.30;99.90;;;;;;5116309;28;20488;-87
2021/09/18 11:47:24;;;;;;;1.50;1.40;;;15.60;99.90;;;;;;5113585;28;20440;-87
2021/09/18 11:49:52;;;;;;;2.50;1.33;;;15.60;99.90;;;;;;5113494;28;20436;-86
2021/09/18 11:52:19;;;;;;;1.83;1.60;;;15.70;99.90;;;;;;5104453;28;20445;-87
2021/09/18 11:54:46;;;;;;;2.40;2.07;;;15.80;99.90;;;;;;5101102;28;20440;-87
2021/09/18 11:57:17;;;;;;;2.50;1.50;;;15.80;99.90;;;;;;5100751;28;20494;-87
2021/09/18 11:59:45;;;;;;;1.70;1.60;;;15.80;99.90;;;;;;5101304;28;20476;-88
2021/09/18 12:02:11;;;;;;;2.97;2.40;;;15.90;99.90;;;;;;5083231;28;20440;-86
2021/09/18 12:04:40;;;;;;;2.20;2.00;;;15.90;99.90;;;;;;5100780;28;20897;-87
2021/09/18 12:07:10;;;;;;;4.07;1.63;;;15.80;99.90;;;;;;5100807;28;20468;-87
2021/09/18 12:09:36;;;;;;;1.87;1.50;;;15.80;99.90;;;;;;5103266;28;20459;-87
2021/09/18 12:12:03;;;;;;;2.70;1.90;;;15.90;99.90;;;;;;5102158;28;21120;-88
2021/09/18 12:14:31;;;;;;;2.87;1.97;;;16.20;99.90;;;;;;5101681;28;20857;-88
2021/09/18 12:16:57;;;;;;;2.03;1.83;;;16.20;99.90;;;;;;5103042;28;20488;-87
2021/09/18 12:19:24;;;;;;;2.40;2.20;;;16.10;99.90;;;;;;5102430;28;20453;-87
2021/09/18 12:21:51;;;;;;;2.80;2.30;;;16.20;99.90;;;;;;5100317;28;20476;-87
2021/09/18 12:24:21;;;;;;;4.63;2.57;;;16.30;99.90;;;;;;5102342;28;20445;-87
2021/09/18 12:26:48;;;;;;;2.47;2.27;;;16.40;99.90;;;;;;5102066;28;20441;-88
2021/09/18 12:29:17;;;;;;;2.93;2.73;;;16.40;99.90;;;;;;5101360;28;20893;-87
2021/09/18 12:31:47;;;;;;;4.87;2.83;;;16.40;99.90;;;;;;5102039;28;20433;-87
2021/09/18 12:34:15;;;;;;;2.70;2.50;;;16.40;99.90;;;;;;5106032;28;20443;-87
2021/09/18 12:36:43;;;;;;;2.60;2.50;;;16.60;99.90;;;;;;5116860;27;20491;-87
2021/09/18 12:39:10;;;;;;;4.10;2.67;;;16.50;99.90;;;;;;5118176;27;20448;-85
2021/09/18 12:41:40;;;;;;;4.50;2.90;;;16.70;99.90;;;;;;5117542;27;20444;-86
2021/09/18 12:44:11;;;;;;;3.20;2.90;;;16.30;99.90;;;;;;5114486;27;20436;-87
2021/09/18 12:46:40;;;;;;;7.77;5.10;;;16.50;99.90;;;;;;5113422;28;20488;-86
2021/09/18 12:49:08;;;;;;;3.30;3.00;;;16.70;99.90;;;;;;5114762;27;20444;-88
2021/09/18 12:51:37;;;;;;;3.27;3.07;;;16.50;99.90;;;;;;5114130;28;20449;-88
2021/09/18 12:54:05;;;;;;;7.30;6.60;;;16.40;99.90;;;;;;5114038;28;20431;-86
2021/09/18 12:56:36;;;;;;;5.67;5.00;;;16.50;99.90;;;;;;5118521;28;20492;-87
2021/09/18 12:59:18;;;;;;;6.53;5.93;;;16.40;99.90;;;;;;5117401;27;20437;-86
2021/09/18 13:01:46;;;;;;;10.63;9.77;;;16.40;99.90;;;;;;5115315;28;20416;-87
2021/09/18 13:04:15;;;;;;;15.90;14.07;;;16.40;99.90;;;;;;5115105;28;20429;-87
2021/09/18 13:06:54;;;;;;;15.37;13.77;;;16.10;99.90;;;;;;5116591;27;20452;-87
2021/09/18 13:09:23;;;;;;;15.63;13.87;;;15.90;99.90;;;;;;5115733;28;20416;-87
2021/09/18 13:11:52;;;;;;;14.73;12.83;;;15.80;99.90;;;;;;5114545;27;20520;-87
2021/09/18 13:14:24;;;;;;;14.13;12.20;;;15.60;99.90;;;;;;5116421;28;20436;-87
2021/09/18 13:16:55;;;;;;;13.70;12.27;;;15.50;99.90;;;;;;5116947;28;20485;-87
2021/09/18 13:19:23;;;;;;;10.40;9.40;;;15.60;99.90;;;;;;5117670;27;20419;-87
2021/09/18 13:21:50;;;;;;;14.20;9.47;;;15.50;99.90;;;;;;5117136;27;20453;-89
2021/09/18 13:24:17;;;;;;;12.83;9.43;;;15.40;99.90;;;;;;5115576;28;20412;-88
2021/09/18 13:26:43;;;;;;;9.93;8.93;;;15.40;99.90;;;;;;5113285;28;20486;-88